Aviation Digital Data Service (ADDS)

Output produced by METARs form (1144 UTC 19 February 2019)
found at http://www.aviationweather.gov/metar/data/
 
Forecast for: ZGOW (SHAN-TOU , CN)
Text: TAF ZGOW 190908Z 1912/2012 11003MPS 5000 BR FEW015 BKN033 TX23/2006Z TN16/1922Z
Forecast period: 1200 to 2000 UTC 19 February 2019
Forecast type: FROM: standard forecast or significant change
Winds: from the ESE (110 degrees) at 7 MPH (6 knots; 3.1 m/s)
Visibility: 3 miles (5 km)
Ceiling: 3300 feet AGL
Clouds: few clouds at 1500 feet AGL
broken clouds at 3300 feet AGL
Weather: BR  (mist)
Text: BECMG 1920/1921 2100
Forecast period: 2000 UTC 19 February 2019 to 0200 UTC 20 February 2019
Forecast type: BECOMING: Conditions expected to become as follows by 2100 UTC 19 February 2019
Winds: from the ESE (110 degrees) at 7 MPH (6 knots; 3.1 m/s)
Visibility: 1.30 miles (2.09 km)
Ceiling: 3300 feet AGL
Clouds: few clouds at 1500 feet AGL
broken clouds at 3300 feet AGL
Weather: BR  (mist)
Text: BECMG 2002/2003 5000
Forecast period: 0200 to 1200 UTC 20 February 2019
Forecast type: BECOMING: Conditions expected to become as follows by 0300 UTC 20 February 2019
Winds: from the ESE (110 degrees) at 7 MPH (6 knots; 3.1 m/s)
Visibility: 3 miles (5 km)
Ceiling: 3300 feet AGL
Clouds: few clouds at 1500 feet AGL
broken clouds at 3300 feet AGL
Weather: BR  (mist)